createdAt,value
2019-01-03T15:02:15.181Z,68.92
2019-01-03T15:04:49.334Z,69.33
2019-01-03T15:07:22.926Z,69.76
2019-01-03T15:09:56.277Z,70.15
2019-01-03T15:12:30.224Z,69.49
2019-01-03T15:15:04.217Z,70.41
2019-01-03T15:17:37.874Z,69.34
2019-01-03T15:20:13.756Z,69.54
2019-01-03T15:22:47.975Z,69.53
2019-01-03T15:25:22.086Z,70.09
2019-01-03T15:27:55.494Z,70.02
2019-01-03T15:30:29.075Z,70.15
2019-01-03T15:33:03.063Z,70.57
2019-01-03T15:35:36.923Z,70.56
2019-01-03T15:38:10.485Z,70.63
2019-01-03T15:40:44.156Z,70.90
2019-01-03T15:43:17.683Z,70.80
2019-01-03T15:45:51.574Z,70.25
2019-01-03T15:48:26.777Z,70.68
2019-01-03T15:51:00.444Z,70.70
2019-01-03T15:53:35.256Z,71.00
2019-01-03T15:56:09.236Z,71.77
2019-01-03T15:58:43.133Z,72.42
2019-01-03T16:01:19.287Z,72.93
2019-01-03T16:03:52.934Z,73.40
2019-01-03T16:06:27.084Z,73.34
2019-01-03T16:09:00.575Z,73.72
2019-01-03T16:11:36.404Z,73.91
2019-01-03T16:14:10.084Z,74.37
2019-01-03T16:16:43.627Z,74.37
2019-01-03T16:19:17.747Z,74.50
2019-01-03T16:21:51.708Z,74.75
2019-01-03T16:24:25.843Z,74.64
2019-01-03T16:26:59.937Z,74.82
2019-01-03T16:29:34.474Z,74.82
2019-01-03T16:32:08.804Z,74.00
2019-01-03T16:34:43.102Z,73.19
2019-01-03T16:37:17.474Z,72.83
2019-01-03T16:39:52.106Z,72.18
2019-01-03T16:42:45.467Z,71.81
2019-01-03T16:45:19.497Z,71.12
2019-01-03T16:47:54.026Z,71.16
2019-01-03T16:50:28.278Z,71.26
2019-01-03T16:53:03.729Z,71.37
2019-01-03T16:55:37.886Z,71.56
2019-01-03T16:59:39.806Z,71.43
2019-01-03T17:02:13.947Z,71.60
2019-01-03T17:04:48.066Z,71.42
2019-01-03T17:07:23.526Z,71.05
2019-01-03T17:09:58.037Z,70.67
2019-01-03T17:12:32.090Z,70.39
2019-01-03T17:15:06.653Z,70.25
2019-01-03T17:17:40.747Z,70.52
2019-01-03T17:20:15.336Z,70.73
2019-01-03T17:22:49.686Z,70.75
2019-01-03T17:25:23.853Z,70.84
2019-01-03T17:27:58.039Z,70.74
2019-01-03T17:30:32.409Z,70.95
2019-01-03T17:33:06.545Z,71.12
2019-01-03T17:35:42.115Z,71.41
2019-01-03T17:38:19.430Z,71.70
2019-01-03T17:40:55.906Z,71.31
2019-01-03T17:43:30.337Z,70.90
2019-01-03T17:46:04.705Z,71.14
2019-01-03T17:48:40.383Z,71.42
2019-01-03T17:51:15.035Z,71.41
2019-01-03T17:53:49.126Z,71.78
2019-01-03T17:56:23.297Z,71.70
2019-01-03T17:58:57.497Z,71.76
2019-01-03T18:01:31.875Z,71.70
2019-01-03T18:04:06.515Z,71.76
2019-01-03T18:06:41.197Z,71.65
2019-01-03T18:09:15.293Z,71.73
2019-01-03T18:11:52.357Z,71.91
2019-01-03T18:14:26.677Z,72.15
2019-01-03T18:17:01.077Z,72.51
2019-01-03T18:19:35.417Z,72.71
2019-01-03T18:22:09.935Z,72.61
2019-01-03T18:24:45.116Z,72.45
2019-01-03T18:27:19.644Z,72.78
2019-01-03T18:29:53.742Z,72.79
2019-01-03T18:32:28.403Z,72.62
2019-01-03T18:35:02.868Z,72.32
2019-01-03T18:37:36.965Z,72.45
2019-01-03T18:40:15.407Z,72.78
2019-01-03T18:42:50.598Z,73.09
2019-01-03T18:45:28.050Z,73.41
2019-01-03T18:48:02.417Z,73.68
2019-01-03T18:50:39.463Z,73.81
2019-01-03T18:53:18.957Z,73.81
2019-01-03T18:55:53.345Z,73.69
2019-01-03T18:58:27.582Z,73.02
2019-01-03T19:01:09.276Z,73.26
2019-01-03T19:03:44.885Z,73.14
2019-01-03T19:06:19.423Z,73.52
2019-01-03T19:08:53.993Z,73.46
2019-01-03T19:11:28.343Z,73.16
2019-01-03T19:14:02.633Z,73.58
2019-01-03T19:16:37.255Z,74.16
2019-01-03T19:19:11.836Z,74.45
2019-01-03T19:21:46.582Z,74.39
2019-01-03T19:24:23.558Z,74.39
2019-01-03T19:26:57.728Z,74.19
2019-01-03T19:29:32.522Z,74.19
2019-01-03T19:32:06.980Z,74.39
2019-01-03T19:34:42.075Z,74.63
2019-01-03T19:37:16.456Z,74.70
2019-01-03T19:39:50.814Z,74.70
2019-01-03T19:42:24.992Z,74.79
2019-01-03T19:44:59.425Z,75.00
2019-01-03T19:47:33.898Z,75.16
2019-01-03T19:50:09.981Z,75.40
2019-01-03T19:52:44.613Z,75.59
2019-01-03T19:55:19.482Z,75.68
2019-01-03T19:57:53.977Z,75.58
2019-01-03T20:00:28.362Z,75.66
2019-01-03T20:03:02.912Z,75.69
2019-01-03T20:05:38.064Z,75.92
2019-01-03T20:08:12.583Z,75.89
2019-01-03T20:10:47.072Z,75.81
2019-01-03T20:13:21.538Z,75.97
2019-01-03T20:16:00.144Z,75.86
2019-01-03T20:18:34.716Z,76.20
2019-01-03T20:21:09.298Z,76.25
2019-01-03T20:23:46.487Z,76.33
2019-01-03T20:26:21.412Z,76.23
2019-01-03T20:28:55.791Z,76.09
2019-01-03T20:31:30.263Z,76.03
2019-01-03T20:34:04.706Z,76.08
2019-01-03T20:36:40.273Z,76.19
2019-01-03T20:39:14.685Z,76.33
2019-01-03T20:41:49.015Z,76.33
2019-01-03T20:44:23.826Z,76.44
2019-01-03T20:46:58.505Z,76.42
2019-01-03T20:49:32.603Z,76.63
2019-01-03T20:52:07.017Z,76.46
2019-01-03T20:54:41.161Z,76.47
2019-01-03T20:57:15.842Z,76.42
2019-01-03T20:59:50.312Z,76.06
2019-01-03T21:02:24.823Z,76.05
2019-01-03T21:04:59.304Z,75.90
2019-01-03T21:07:35.885Z,75.98
2019-01-03T21:10:12.404Z,75.96
2019-01-03T21:12:46.945Z,76.28
2019-01-03T21:15:22.364Z,76.59
2019-01-03T21:18:00.442Z,76.96
2019-01-03T21:20:35.812Z,77.09
2019-01-03T21:23:10.350Z,77.33
2019-01-03T21:25:47.057Z,77.33
2019-01-03T21:28:21.352Z,77.31
2019-01-03T21:30:55.753Z,77.31
2019-01-03T21:33:30.425Z,77.14
2019-01-03T21:36:04.967Z,76.78
2019-01-03T21:38:40.465Z,76.58
2019-01-03T21:41:15.257Z,76.77
2019-01-03T21:43:49.625Z,76.97
2019-01-03T21:46:24.082Z,77.14
2019-01-03T21:48:58.262Z,77.28
2019-01-03T21:51:32.703Z,77.09
2019-01-03T21:54:06.962Z,76.65
2019-01-03T21:56:41.182Z,76.27
2019-01-03T21:59:16.040Z,76.17
2019-01-03T22:01:50.425Z,76.03
2019-01-03T22:04:24.735Z,75.88
2019-01-03T22:06:58.813Z,75.80
2019-01-03T22:09:34.225Z,75.51
2019-01-03T22:12:08.295Z,75.21
2019-01-03T22:14:42.513Z,75.07
2019-01-03T22:17:16.786Z,75.02
2019-01-03T22:19:51.498Z,75.03
2019-01-03T22:22:25.695Z,74.83
2019-01-03T22:24:59.552Z,74.81
2019-01-03T22:27:33.722Z,74.75
2019-01-03T22:30:12.075Z,74.75
2019-01-03T22:32:46.639Z,74.49
2019-01-03T22:35:20.443Z,74.35
2019-01-03T22:37:54.191Z,74.50
2019-01-03T22:40:27.887Z,74.15
2019-01-03T22:43:01.907Z,74.27
2019-01-03T22:45:35.724Z,74.30
2019-01-03T22:48:09.091Z,74.39
2019-01-03T22:50:43.273Z,74.56
2019-01-03T22:53:17.919Z,74.31
2019-01-03T22:55:51.207Z,74.55
2019-01-03T22:58:24.775Z,74.34
2019-01-03T23:00:59.818Z,74.39
2019-01-03T23:03:33.227Z,74.69
2019-01-03T23:06:06.406Z,74.64
2019-01-03T23:08:40.368Z,74.57
2019-01-03T23:11:14.206Z,74.45
2019-01-03T23:13:49.192Z,74.48
2019-01-03T23:16:22.642Z,74.19
2019-01-03T23:18:56.145Z,73.92
2019-01-03T23:21:30.290Z,73.70
2019-01-03T23:24:03.502Z,73.66
2019-01-03T23:26:37.265Z,73.56
2019-01-03T23:29:10.822Z,73.54
2019-01-03T23:31:44.504Z,73.50
2019-01-03T23:34:18.312Z,73.37
2019-01-03T23:36:52.226Z,73.44
2019-01-03T23:39:25.507Z,73.42
2019-01-03T23:41:59.109Z,73.21
2019-01-03T23:44:32.455Z,73.21
2019-01-03T23:47:05.889Z,73.04
2019-01-03T23:49:39.663Z,73.04
2019-01-03T23:52:13.199Z,73.16
2019-01-03T23:54:46.557Z,73.03
2019-01-03T23:57:20.095Z,72.86
2019-01-03T23:59:53.474Z,72.92
